sensor_id;sensor_type;location;lat;lon;timestamp;pressure;altitude;pressure_sealevel;temperature;humidity
48926;BME280;39838;59.938;30.642;2023-03-01T00:01:30;100425.00;;;-4.00;51.95
48926;BME280;39838;59.938;30.642;2023-03-01T00:03:58;100406.81;;;-3.93;52.23
48926;BME280;39838;59.938;30.642;2023-03-01T00:06:27;100423.81;;;-3.92;52.14
48926;BME280;39838;59.938;30.642;2023-03-01T00:08:54;100424.47;;;-3.94;51.96
48926;BME280;39838;59.938;30.642;2023-03-01T00:11:23;100418.53;;;-3.95;52.50
48926;BME280;39838;59.938;30.642;2023-03-01T00:13:53;100417.31;;;-4.01;52.74
48926;BME280;39838;59.938;30.642;2023-03-01T00:16:23;100417.31;;;-4.01;52.34
48926;BME280;39838;59.938;30.642;2023-03-01T00:18:50;100449.88;;;-3.94;52.84
48926;BME280;39838;59.938;30.642;2023-03-01T00:21:17;100453.47;;;-3.91;52.25
48926;BME280;39838;59.938;30.642;2023-03-01T00:23:48;100441.19;;;-3.83;52.31
48926;BME280;39838;59.938;30.642;2023-03-01T00:26:16;100437.16;;;-3.79;52.31
48926;BME280;39838;59.938;30.642;2023-03-01T00:28:44;100436.53;;;-3.75;52.71
48926;BME280;39838;59.938;30.642;2023-03-01T00:31:12;100403.66;;;-3.89;52.69
48926;BME280;39838;59.938;30.642;2023-03-01T00:33:40;100433.63;;;-3.67;52.44
48926;BME280;39838;59.938;30.642;2023-03-01T00:36:08;100424.34;;;-3.66;52.88
48926;BME280;39838;59.938;30.642;2023-03-01T00:38:36;100423.25;;;-3.71;52.77
48926;BME280;39838;59.938;30.642;2023-03-01T00:41:06;100439.50;;;-3.68;52.76
48926;BME280;39838;59.938;30.642;2023-03-01T00:43:34;100427.00;;;-3.65;53.11
48926;BME280;39838;59.938;30.642;2023-03-01T00:46:02;100440.03;;;-3.59;52.76
48926;BME280;39838;59.938;30.642;2023-03-01T00:48:30;100430.75;;;-3.58;53.16
48926;BME280;39838;59.938;30.642;2023-03-01T00:50:57;100438.44;;;-3.57;53.32
48926;BME280;39838;59.938;30.642;2023-03-01T00:53:30;100448.69;;;-3.55;53.13
48926;BME280;39838;59.938;30.642;2023-03-01T00:55:57;100442.00;;;-3.53;53.08
48926;BME280;39838;59.938;30.642;2023-03-01T00:58:26;100447.34;;;-3.48;53.19
48926;BME280;39838;59.938;30.642;2023-03-01T01:00:53;100462.44;;;-3.51;53.40
48926;BME280;39838;59.938;30.642;2023-03-01T01:03:20;100436.31;;;-3.49;53.08
48926;BME280;39838;59.938;30.642;2023-03-01T01:05:50;100443.22;;;-3.46;53.36
48926;BME280;39838;59.938;30.642;2023-03-01T01:08:17;100446.63;;;-3.46;53.31
48926;BME280;39838;59.938;30.642;2023-03-01T01:10:44;100443.22;;;-3.46;53.53
48926;BME280;39838;59.938;30.642;2023-03-01T01:13:11;100432.19;;;-3.47;53.07
48926;BME280;39838;59.938;30.642;2023-03-01T01:15:40;100433.72;;;-3.50;53.14
48926;BME280;39838;59.938;30.642;2023-03-01T01:18:07;100446.16;;;-3.55;53.53
48926;BME280;39838;59.938;30.642;2023-03-01T01:20:35;100435.03;;;-3.57;53.36
48926;BME280;39838;59.938;30.642;2023-03-01T01:23:05;100442.66;;;-3.57;53.88
48926;BME280;39838;59.938;30.642;2023-03-01T01:25:34;100441.69;;;-3.59;53.86
48926;BME280;39838;59.938;30.642;2023-03-01T01:28:02;100440.91;;;-3.58;53.85
48926;BME280;39838;59.938;30.642;2023-03-01T01:30:30;100440.13;;;-3.57;53.80
48926;BME280;39838;59.938;30.642;2023-03-01T01:32:58;100450.88;;;-3.61;53.43
48926;BME280;39838;59.938;30.642;2023-03-01T01:35:25;100436.38;;;-3.64;53.27
48926;BME280;39838;59.938;30.642;2023-03-01T01:37:52;100440.22;;;-3.70;53.89
48926;BME280;39838;59.938;30.642;2023-03-01T01:40:19;100461.16;;;-3.74;53.97
48926;BME280;39838;59.938;30.642;2023-03-01T01:42:47;100447.56;;;-3.75;54.33
48926;BME280;39838;59.938;30.642;2023-03-01T01:45:31;100449.97;;;-3.93;54.53
48926;BME280;39838;59.938;30.642;2023-03-01T01:48:05;100457.16;;;-3.86;54.55
48926;BME280;39838;59.938;30.642;2023-03-01T01:50:34;100456.94;;;-3.89;54.84
48926;BME280;39838;59.938;30.642;2023-03-01T01:53:08;100455.13;;;-4.06;55.17
48926;BME280;39838;59.938;30.642;2023-03-01T01:55:37;100473.84;;;-4.04;55.68
48926;BME280;39838;59.938;30.642;2023-03-01T01:58:08;100447.59;;;-4.04;56.19
48926;BME280;39838;59.938;30.642;2023-03-01T02:00:37;100456.00;;;-4.05;55.88
48926;BME280;39838;59.938;30.642;2023-03-01T02:03:09;100411.28;;;-4.33;56.86
48926;BME280;39838;59.938;30.642;2023-03-01T02:05:42;100431.16;;;-4.26;57.04
48926;BME280;39838;59.938;30.642;2023-03-01T02:08:13;100441.09;;;-4.29;57.36
48926;BME280;39838;59.938;30.642;2023-03-01T02:10:41;100467.91;;;-4.19;57.51
48926;BME280;39838;59.938;30.642;2023-03-01T02:13:09;100476.28;;;-4.20;58.06
48926;BME280;39838;59.938;30.642;2023-03-01T02:15:38;100468.34;;;-4.26;57.52
48926;BME280;39838;59.938;30.642;2023-03-01T02:18:09;100480.31;;;-4.24;58.05
48926;BME280;39838;59.938;30.642;2023-03-01T02:20:43;100478.56;;;-4.25;58.32
48926;BME280;39838;59.938;30.642;2023-03-01T02:23:12;100475.31;;;-4.22;57.89
48926;BME280;39838;59.938;30.642;2023-03-01T02:25:45;100479.53;;;-4.23;58.54
48926;BME280;39838;59.938;30.642;2023-03-01T02:28:28;100481.19;;;-4.23;57.89
48926;BME280;39838;59.938;30.642;2023-03-01T02:30:56;100485.81;;;-4.16;57.94
48926;BME280;39838;59.938;30.642;2023-03-01T02:33:41;100496.84;;;-4.16;58.18
48926;BME280;39838;59.938;30.642;2023-03-01T02:36:13;100489.31;;;-4.14;58.22
48926;BME280;39838;59.938;30.642;2023-03-01T02:38:41;100483.28;;;-4.16;58.30
48926;BME280;39838;59.938;30.642;2023-03-01T02:41:10;100483.88;;;-4.20;58.14
48926;BME280;39838;59.938;30.642;2023-03-01T02:43:41;100474.38;;;-4.24;57.96
48926;BME280;39838;59.938;30.642;2023-03-01T02:46:14;100471.19;;;-4.20;57.92
48926;BME280;39838;59.938;30.642;2023-03-01T02:48:43;100487.31;;;-4.20;58.22
48926;BME280;39838;59.938;30.642;2023-03-01T02:51:26;100477.56;;;-4.27;58.37
48926;BME280;39838;59.938;30.642;2023-03-01T02:54:07;100480.91;;;-4.28;57.81
48926;BME280;39838;59.938;30.642;2023-03-01T02:56:36;100485.91;;;-4.29;58.08
48926;BME280;39838;59.938;30.642;2023-03-01T02:59:05;100490.25;;;-4.27;58.36
48926;BME280;39838;59.938;30.642;2023-03-01T03:01:32;100482.75;;;-4.25;58.03
48926;BME280;39838;59.938;30.642;2023-03-01T03:04:04;100474.97;;;-4.28;58.18
48926;BME280;39838;59.938;30.642;2023-03-01T03:06:31;100485.38;;;-4.24;58.00
48926;BME280;39838;59.938;30.642;2023-03-01T03:08:58;100481.34;;;-4.20;57.56
48926;BME280;39838;59.938;30.642;2023-03-01T03:11:26;100481.34;;;-4.20;58.21
48926;BME280;39838;59.938;30.642;2023-03-01T03:13:53;100476.09;;;-4.23;57.98
48926;BME280;39838;59.938;30.642;2023-03-01T03:16:21;100475.16;;;-4.25;58.15
48926;BME280;39838;59.938;30.642;2023-03-01T03:18:48;100477.34;;;-4.31;58.84
48926;BME280;39838;59.938;30.642;2023-03-01T03:21:16;100474.50;;;-4.36;58.43
48926;BME280;39838;59.938;30.642;2023-03-01T03:23:43;100473.47;;;-4.40;58.34
48926;BME280;39838;59.938;30.642;2023-03-01T03:26:10;100454.91;;;-4.53;58.98
48926;BME280;39838;59.938;30.642;2023-03-01T03:28:40;100468.41;;;-4.40;58.95
48926;BME280;39838;59.938;30.642;2023-03-01T03:31:07;100480.09;;;-4.42;58.84
48926;BME280;39838;59.938;30.642;2023-03-01T03:33:36;100479.84;;;-4.46;58.52
48926;BME280;39838;59.938;30.642;2023-03-01T03:36:04;100473.91;;;-4.47;58.51
48926;BME280;39838;59.938;30.642;2023-03-01T03:38:31;100473.00;;;-4.47;59.44
48926;BME280;39838;59.938;30.642;2023-03-01T03:41:04;100476.44;;;-4.47;59.05
48926;BME280;39838;59.938;30.642;2023-03-01T03:43:35;100457.50;;;-4.67;58.99
48926;BME280;39838;59.938;30.642;2023-03-01T03:46:03;100480.34;;;-4.52;59.20
48926;BME280;39838;59.938;30.642;2023-03-01T03:48:32;100484.63;;;-4.51;58.92
48926;BME280;39838;59.938;30.642;2023-03-01T03:51:01;100495.38;;;-4.55;59.31
48926;BME280;39838;59.938;30.642;2023-03-01T03:53:31;100491.09;;;-4.56;59.15
48926;BME280;39838;59.938;30.642;2023-03-01T03:55:58;100492.75;;;-4.56;59.67
48926;BME280;39838;59.938;30.642;2023-03-01T03:58:25;100494.41;;;-4.57;59.83
48926;BME280;39838;59.938;30.642;2023-03-01T04:00:55;100484.09;;;-4.60;59.06
48926;BME280;39838;59.938;30.642;2023-03-01T04:03:23;100489.53;;;-4.54;59.30
48926;BME280;39838;59.938;30.642;2023-03-01T04:05:51;100496.16;;;-4.56;59.17
48926;BME280;39838;59.938;30.642;2023-03-01T04:08:22;100501.06;;;-4.59;59.08
48926;BME280;39838;59.938;30.642;2023-03-01T04:10:51;100490.91;;;-4.59;59.32
48926;BME280;39838;59.938;30.642;2023-03-01T04:13:20;100447.28;;;-4.81;59.62
48926;BME280;39838;59.938;30.642;2023-03-01T04:15:48;100499.69;;;-4.54;59.09
48926;BME280;39838;59.938;30.642;2023-03-01T04:18:18;100507.47;;;-4.51;59.00
48926;BME280;39838;59.938;30.642;2023-03-01T04:20:46;100486.81;;;-4.57;59.43
48926;BME280;39838;59.938;30.642;2023-03-01T04:23:15;100491.97;;;-4.55;59.16
48926;BME280;39838;59.938;30.642;2023-03-01T04:25:48;100501.31;;;-4.54;59.44
48926;BME280;39838;59.938;30.642;2023-03-01T04:28:19;100492.25;;;-4.51;58.96
48926;BME280;39838;59.938;30.642;2023-03-01T04:30:46;100490.22;;;-4.56;59.28
48926;BME280;39838;59.938;30.642;2023-03-01T04:33:16;100495.97;;;-4.59;59.52
48926;BME280;39838;59.938;30.642;2023-03-01T04:35:44;100496.16;;;-4.56;59.50
48926;BME280;39838;59.938;30.642;2023-03-01T04:38:11;100493.25;;;-4.62;59.22
48926;BME280;39838;59.938;30.642;2023-03-01T04:40:39;100511.38;;;-4.56;59.39
48926;BME280;39838;59.938;30.642;2023-03-01T04:43:10;100507.97;;;-4.56;59.38
48926;BME280;39838;59.938;30.642;2023-03-01T04:45:37;100508.84;;;-4.56;59.50
48926;BME280;39838;59.938;30.642;2023-03-01T04:48:05;100501.06;;;-4.59;59.41
48926;BME280;39838;59.938;30.642;2023-03-01T04:50:33;100500.19;;;-4.59;59.44
48926;BME280;39838;59.938;30.642;2023-03-01T04:53:00;100505.06;;;-4.62;59.63
48926;BME280;39838;59.938;30.642;2023-03-01T04:55:27;100514.59;;;-4.58;59.73
48926;BME280;39838;59.938;30.642;2023-03-01T04:57:55;100521.25;;;-4.60;59.87
48926;BME280;39838;59.938;30.642;2023-03-01T05:00:23;100517.72;;;-4.62;60.05
48926;BME280;39838;59.938;30.642;2023-03-01T05:02:52;100531.19;;;-4.63;60.30
48926;BME280;39838;59.938;30.642;2023-03-01T05:05:21;100524.88;;;-4.70;60.35
48926;BME280;39838;59.938;30.642;2023-03-01T05:07:54;100526.91;;;-4.64;60.10
48926;BME280;39838;59.938;30.642;2023-03-01T05:10:23;100510.88;;;-4.78;60.10
48926;BME280;39838;59.938;30.642;2023-03-01T05:12:50;100541.16;;;-4.67;59.77
48926;BME280;39838;59.938;30.642;2023-03-01T05:15:18;100546.41;;;-4.63;60.42
48926;BME280;39838;59.938;30.642;2023-03-01T05:17:49;100554.22;;;-4.60;60.42
48926;BME280;39838;59.938;30.642;2023-03-01T05:20:17;100552.66;;;-4.58;60.11
48926;BME280;39838;59.938;30.642;2023-03-01T05:22:48;100550.03;;;-4.60;60.59
48926;BME280;39838;59.938;30.642;2023-03-01T05:25:15;100536.47;;;-4.60;60.13
48926;BME280;39838;59.938;30.642;2023-03-01T05:27:43;100540.06;;;-4.57;60.21
48926;BME280;39838;59.938;30.642;2023-03-01T05:30:11;100546.88;;;-4.56;60.93
48926;BME280;39838;59.938;30.642;2023-03-01T05:32:44;100522.38;;;-4.55;60.25
48926;BME280;39838;59.938;30.642;2023-03-01T05:35:15;100522.66;;;-4.51;60.47
48926;BME280;39838;59.938;30.642;2023-03-01T05:37:44;100537.63;;;-4.41;61.11
48926;BME280;39838;59.938;30.642;2023-03-01T05:40:14;100532.78;;;-4.37;60.27
48926;BME280;39838;59.938;30.642;2023-03-01T05:42:46;100536.34;;;-4.34;59.93
48926;BME280;39838;59.938;30.642;2023-03-01T05:45:14;100535.16;;;-4.26;60.49
48926;BME280;39838;59.938;30.642;2023-03-01T05:47:43;100526.25;;;-4.19;60.44
48926;BME280;39838;59.938;30.642;2023-03-01T05:50:14;100531.75;;;-4.26;60.34
48926;BME280;39838;59.938;30.642;2023-03-01T05:52:45;100533.25;;;-4.15;60.18
48926;BME280;39838;59.938;30.642;2023-03-01T05:55:12;100545.25;;;-4.13;59.68
48926;BME280;39838;59.938;30.642;2023-03-01T05:57:39;100557.16;;;-4.12;59.79
48926;BME280;39838;59.938;30.642;2023-03-01T06:00:08;100547.25;;;-4.07;59.72
48926;BME280;39838;59.938;30.642;2023-03-01T06:02:35;100559.44;;;-4.01;59.35
48926;BME280;39838;59.938;30.642;2023-03-01T06:05:04;100563.84;;;-3.99;59.55
48926;BME280;39838;59.938;30.642;2023-03-01T06:07:32;100552.19;;;-3.95;59.51
48926;BME280;39838;59.938;30.642;2023-03-01T06:10:00;100549.06;;;-3.91;59.64
48926;BME280;39838;59.938;30.642;2023-03-01T06:12:30;100540.91;;;-3.86;59.60
48926;BME280;39838;59.938;30.642;2023-03-01T06:14:58;100554.84;;;-3.79;59.19
48926;BME280;39838;59.938;30.642;2023-03-01T06:17:25;100534.78;;;-3.74;59.29
48926;BME280;39838;59.938;30.642;2023-03-01T06:19:53;100544.69;;;-3.64;59.11
48926;BME280;39838;59.938;30.642;2023-03-01T06:22:20;100544.16;;;-3.59;59.37
48926;BME280;39838;59.938;30.642;2023-03-01T06:24:48;100554.41;;;-3.57;59.13
48926;BME280;39838;59.938;30.642;2023-03-01T06:27:15;100541.06;;;-3.53;59.08
48926;BME280;39838;59.938;30.642;2023-03-01T06:29:42;100543.09;;;-3.47;58.79
48926;BME280;39838;59.938;30.642;2023-03-01T06:32:10;100536.25;;;-3.48;58.65
48926;BME280;39838;59.938;30.642;2023-03-01T06:34:37;100547.13;;;-3.51;58.60
48926;BME280;39838;59.938;30.642;2023-03-01T06:37:05;100548.69;;;-3.53;58.83
48926;BME280;39838;59.938;30.642;2023-03-01T06:39:33;100547.94;;;-3.52;58.63
48926;BME280;39838;59.938;30.642;2023-03-01T06:42:02;100552.56;;;-3.45;58.92
48926;BME280;39838;59.938;30.642;2023-03-01T06:44:29;100544.16;;;-3.44;59.03
48926;BME280;39838;59.938;30.642;2023-03-01T06:46:56;100534.16;;;-3.41;58.94
48926;BME280;39838;59.938;30.642;2023-03-01T06:49:23;100549.16;;;-3.45;58.80
48926;BME280;39838;59.938;30.642;2023-03-01T06:51:50;100547.50;;;-3.45;58.86
48926;BME280;39838;59.938;30.642;2023-03-01T06:54:17;100557.09;;;-3.39;58.89
48926;BME280;39838;59.938;30.642;2023-03-01T06:56:48;100534.56;;;-3.33;58.57
48926;BME280;39838;59.938;30.642;2023-03-01T06:59:17;100537.31;;;-3.30;58.41
48926;BME280;39838;59.938;30.642;2023-03-01T07:01:44;100552.09;;;-3.23;58.53
48926;BME280;39838;59.938;30.642;2023-03-01T07:04:12;100506.47;;;-3.36;58.34
48926;BME280;39838;59.938;30.642;2023-03-01T07:06:40;100547.78;;;-3.09;58.20
48926;BME280;39838;59.938;30.642;2023-03-01T07:09:07;100547.31;;;-3.02;58.10
48926;BME280;39838;59.938;30.642;2023-03-01T07:11:34;100540.72;;;-2.98;57.93
48926;BME280;39838;59.938;30.642;2023-03-01T07:14:01;100517.06;;;-2.97;57.92
48926;BME280;39838;59.938;30.642;2023-03-01T07:16:30;100526.59;;;-2.93;57.76
48926;BME280;39838;59.938;30.642;2023-03-01T07:18:57;100542.19;;;-2.87;57.81
48926;BME280;39838;59.938;30.642;2023-03-01T07:21:24;100531.28;;;-2.85;57.77
48926;BME280;39838;59.938;30.642;2023-03-01T07:23:51;100535.84;;;-2.79;57.53
48926;BME280;39838;59.938;30.642;2023-03-01T07:26:18;100524.09;;;-2.77;57.49
48926;BME280;39838;59.938;30.642;2023-03-01T07:28:45;100517.25;;;-2.78;57.53
48926;BME280;39838;59.938;30.642;2023-03-01T07:31:12;100527.34;;;-2.80;57.68
48926;BME280;39838;59.938;30.642;2023-03-01T07:33:41;100558.19;;;-2.73;57.37
48926;BME280;39838;59.938;30.642;2023-03-01T07:36:09;100547.06;;;-2.76;57.48
48926;BME280;39838;59.938;30.642;2023-03-01T07:38:36;100535.16;;;-2.77;57.48
48926;BME280;39838;59.938;30.642;2023-03-01T07:41:03;100534.44;;;-2.74;57.36
48926;BME280;39838;59.938;30.642;2023-03-01T07:43:31;100526.72;;;-2.76;57.56
48926;BME280;39838;59.938;30.642;2023-03-01T07:45:59;100534.56;;;-2.71;57.41
48926;BME280;39838;59.938;30.642;2023-03-01T07:48:27;100528.63;;;-2.71;57.61
48926;BME280;39838;59.938;30.642;2023-03-01T07:50:57;100520.13;;;-2.72;57.60
48926;BME280;39838;59.938;30.642;2023-03-01T07:53:25;100534.69;;;-2.69;57.36
48926;BME280;39838;59.938;30.642;2023-03-01T07:56:00;100539.78;;;-2.69;57.38
48926;BME280;39838;59.938;30.642;2023-03-01T07:58:27;100529.94;;;-2.63;57.28
48926;BME280;39838;59.938;30.642;2023-03-01T08:00:54;100534.53;;;-2.56;57.24
48926;BME280;39838;59.938;30.642;2023-03-01T08:03:22;100529.78;;;-2.50;57.38
48926;BME280;39838;59.938;30.642;2023-03-01T08:05:49;100531.03;;;-2.42;57.57
48926;BME280;39838;59.938;30.642;2023-03-01T08:08:17;100526.91;;;-2.40;57.00
48926;BME280;39838;59.938;30.642;2023-03-01T08:10:44;100520.22;;;-2.38;57.01
48926;BME280;39838;59.938;30.642;2023-03-01T08:13:11;100522.75;;;-2.38;56.99
48926;BME280;39838;59.938;30.642;2023-03-01T08:15:38;100506.13;;;-2.31;56.94
48926;BME280;39838;59.938;30.642;2023-03-01T08:18:05;100500.56;;;-2.24;56.92
48926;BME280;39838;59.938;30.642;2023-03-01T08:20:33;100497.78;;;-2.12;56.89
48926;BME280;39838;59.938;30.642;2023-03-01T08:23:00;100487.91;;;-2.06;56.69
48926;BME280;39838;59.938;30.642;2023-03-01T08:25:28;100485.66;;;-2.00;56.29
48926;BME280;39838;59.938;30.642;2023-03-01T08:27:55;100485.81;;;-1.97;56.60
48926;BME280;39838;59.938;30.642;2023-03-01T08:30:22;100477.91;;;-1.85;56.24
48926;BME280;39838;59.938;30.642;2023-03-01T08:32:50;100478.06;;;-1.82;56.22
48926;BME280;39838;59.938;30.642;2023-03-01T08:35:18;100470.63;;;-1.78;56.00
48926;BME280;39838;59.938;30.642;2023-03-01T08:37:46;100473.19;;;-1.78;55.90
48926;BME280;39838;59.938;30.642;2023-03-01T08:40:13;100473.34;;;-1.75;56.21
48926;BME280;39838;59.938;30.642;2023-03-01T08:42:42;100468.19;;;-1.58;55.72
48926;BME280;39838;59.938;30.642;2023-03-01T08:45:10;100476.84;;;-1.55;55.73
48926;BME280;39838;59.938;30.642;2023-03-01T08:47:38;100472.19;;;-1.46;55.43
48926;BME280;39838;59.938;30.642;2023-03-01T08:50:06;100478.03;;;-1.48;54.83
48926;BME280;39838;59.938;30.642;2023-03-01T08:52:33;100476.91;;;-1.53;54.88
48926;BME280;39838;59.938;30.642;2023-03-01T08:55:00;100489.16;;;-1.46;55.27
48926;BME280;39838;59.938;30.642;2023-03-01T08:57:29;100478.44;;;-1.39;55.18
48926;BME280;39838;59.938;30.642;2023-03-01T08:59:58;100519.28;;;-1.38;54.88
48926;BME280;39838;59.938;30.642;2023-03-01T09:02:25;100508.22;;;-1.38;55.25
48926;BME280;39838;59.938;30.642;2023-03-01T09:04:52;100486.63;;;-1.28;54.88
48926;BME280;39838;59.938;30.642;2023-03-01T09:07:19;100476.03;;;-1.18;54.94
48926;BME280;39838;59.938;30.642;2023-03-01T09:09:46;100467.28;;;-1.05;55.45
48926;BME280;39838;59.938;30.642;2023-03-01T09:12:13;100472.00;;;-0.76;55.15
48926;BME280;39838;59.938;30.642;2023-03-01T09:14:40;100465.38;;;-0.53;55.05
48926;BME280;39838;59.938;30.642;2023-03-01T09:17:09;100455.28;;;-0.31;54.70
48926;BME280;39838;59.938;30.642;2023-03-01T09:19:36;100459.09;;;-0.21;54.25
48926;BME280;39838;59.938;30.642;2023-03-01T09:22:03;100466.13;;;-0.15;53.92
48926;BME280;39838;59.938;30.642;2023-03-01T09:24:31;100457.75;;;-0.13;53.61
48926;BME280;39838;59.938;30.642;2023-03-01T09:26:58;100455.97;;;-0.14;53.94
48926;BME280;39838;59.938;30.642;2023-03-01T09:29:25;100466.91;;;-0.18;53.73
48926;BME280;39838;59.938;30.642;2023-03-01T09:31:52;100511.50;;;-0.29;53.01
48926;BME280;39838;59.938;30.642;2023-03-01T09:34:22;100470.22;;;-0.59;53.26
48926;BME280;39838;59.938;30.642;2023-03-01T09:36:50;100448.50;;;-0.69;53.47
48926;BME280;39838;59.938;30.642;2023-03-01T09:39:17;100468.91;;;-0.69;53.64
48926;BME280;39838;59.938;30.642;2023-03-01T09:41:58;100451.88;;;-0.70;53.94
48926;BME280;39838;59.938;30.642;2023-03-01T09:44:32;100456.03;;;-0.52;53.87
48926;BME280;39838;59.938;30.642;2023-03-01T09:47:03;100456.31;;;-0.46;53.62
48926;BME280;39838;59.938;30.642;2023-03-01T09:49:33;100453.81;;;-0.45;53.65
48926;BME280;39838;59.938;30.642;2023-03-01T09:52:10;100456.16;;;-0.49;53.94
48926;BME280;39838;59.938;30.642;2023-03-01T09:54:39;100446.50;;;-0.37;54.19
48926;BME280;39838;59.938;30.642;2023-03-01T09:57:19;100453.66;;;-0.29;53.26
48926;BME280;39838;59.938;30.642;2023-03-01T09:59:59;100435.81;;;-0.48;52.63
48926;BME280;39838;59.938;30.642;2023-03-01T10:02:38;100446.75;;;-0.31;53.40
48926;BME280;39838;59.938;30.642;2023-03-01T10:05:19;100430.63;;;-0.49;52.20
48926;BME280;39838;59.938;30.642;2023-03-01T10:07:56;100449.03;;;-0.37;52.55
48926;BME280;39838;59.938;30.642;2023-03-01T10:10:32;100470.47;;;-0.34;52.79
48926;BME280;39838;59.938;30.642;2023-03-01T10:13:03;100482.16;;;-0.39;52.27
48926;BME280;39838;59.938;30.642;2023-03-01T10:15:39;100407.84;;;-0.66;52.54
48926;BME280;39838;59.938;30.642;2023-03-01T10:18:14;100446.59;;;-0.34;53.08
48926;BME280;39838;59.938;30.642;2023-03-01T10:20:48;100435.13;;;-0.24;52.88
48926;BME280;39838;59.938;30.642;2023-03-01T10:23:18;100421.19;;;-0.12;53.69
48926;BME280;39838;59.938;30.642;2023-03-01T10:25:56;100415.56;;;-0.03;52.97
48926;BME280;39838;59.938;30.642;2023-03-01T10:28:36;100418.50;;;0.06;52.94
48926;BME280;39838;59.938;30.642;2023-03-01T10:31:12;100415.47;;;0.15;53.06
48926;BME280;39838;59.938;30.642;2023-03-01T10:33:41;100406.97;;;0.16;52.80
48926;BME280;39838;59.938;30.642;2023-03-01T10:36:09;100426.59;;;0.17;53.10
48926;BME280;39838;59.938;30.642;2023-03-01T10:38:51;100427.53;;;-0.02;53.09
48926;BME280;39838;59.938;30.642;2023-03-01T10:41:20;100394.03;;;-0.10;53.31
48926;BME280;39838;59.938;30.642;2023-03-01T10:43:50;100391.97;;;0.03;53.75
48926;BME280;39838;59.938;30.642;2023-03-01T10:46:24;100394.16;;;0.14;53.40
48926;BME280;39838;59.938;30.642;2023-03-01T10:49:14;100400.00;;;0.12;53.32
48926;BME280;39838;59.938;30.642;2023-03-01T10:51:44;100382.88;;;0.09;53.93
48926;BME280;39838;59.938;30.642;2023-03-01T10:54:20;100384.00;;;0.16;53.80
48926;BME280;39838;59.938;30.642;2023-03-01T10:56:50;100402.28;;;0.06;53.70
48926;BME280;39838;59.938;30.642;2023-03-01T10:59:26;100409.91;;;0.04;54.09
48926;BME280;39838;59.938;30.642;2023-03-01T11:02:14;100386.72;;;-0.01;54.30
48926;BME280;39838;59.938;30.642;2023-03-01T11:04:56;100384.00;;;-0.05;54.25
48926;BME280;39838;59.938;30.642;2023-03-01T11:07:25;100365.66;;;0.05;55.20
48926;BME280;39838;59.938;30.642;2023-03-01T11:09:52;100359.50;;;0.21;55.09
48926;BME280;39838;59.938;30.642;2023-03-01T11:12:20;100375.75;;;0.23;54.79
48926;BME280;39838;59.938;30.642;2023-03-01T11:14:48;100356.94;;;0.21;55.24
48926;BME280;39838;59.938;30.642;2023-03-01T11:17:21;100371.41;;;0.20;55.06
48926;BME280;39838;59.938;30.642;2023-03-01T11:20:01;100355.81;;;0.14;55.75
48926;BME280;39838;59.938;30.642;2023-03-01T11:22:32;100369.09;;;0.06;56.49
48926;BME280;39838;59.938;30.642;2023-03-01T11:25:03;100352.03;;;0.05;56.64
48926;BME280;39838;59.938;30.642;2023-03-01T11:27:32;100317.06;;;0.04;56.72
48926;BME280;39838;59.938;30.642;2023-03-01T11:30:05;100335.09;;;0.29;57.07
48926;BME280;39838;59.938;30.642;2023-03-01T11:32:40;100335.59;;;0.41;56.40
48926;BME280;39838;59.938;30.642;2023-03-01T11:35:15;100329.59;;;0.41;56.47
48926;BME280;39838;59.938;30.642;2023-03-01T11:37:55;100326.84;;;0.36;56.43
48926;BME280;39838;59.938;30.642;2023-03-01T11:40:28;100330.63;;;0.23;56.69
48926;BME280;39838;59.938;30.642;2023-03-01T11:43:04;100334.72;;;0.20;56.74
48926;BME280;39838;59.938;30.642;2023-03-01T11:45:47;100333.50;;;0.10;57.81
48926;BME280;39838;59.938;30.642;2023-03-01T11:48:37;100319.09;;;0.12;57.79
48926;BME280;39838;59.938;30.642;2023-03-01T11:51:11;100328.59;;;0.15;58.04
48926;BME280;39838;59.938;30.642;2023-03-01T11:53:56;100323.63;;;-0.03;58.20
48926;BME280;39838;59.938;30.642;2023-03-01T11:56:30;100327.38;;;-0.16;58.90
48926;BME280;39838;59.938;30.642;2023-03-01T11:59:11;100329.69;;;-0.22;58.73
48926;BME280;39838;59.938;30.642;2023-03-01T12:01:56;100308.03;;;-0.32;59.11
48926;BME280;39838;59.938;30.642;2023-03-01T12:04:43;100288.72;;;-0.46;59.28
48926;BME280;39838;59.938;30.642;2023-03-01T12:07:20;100299.28;;;-0.37;59.54
48926;BME280;39838;59.938;30.642;2023-03-01T12:10:08;100281.47;;;-0.35;59.82
48926;BME280;39838;59.938;30.642;2023-03-01T12:12:58;100273.19;;;-0.30;59.73
48926;BME280;39838;59.938;30.642;2023-03-01T12:19:03;100280.59;;;-0.15;59.71
48926;BME280;39838;59.938;30.642;2023-03-01T12:21:46;100248.34;;;-0.13;60.03
48926;BME280;39838;59.938;30.642;2023-03-01T12:24:35;100248.00;;;0.01;60.64
48926;BME280;39838;59.938;30.642;2023-03-01T12:27:22;100237.06;;;0.05;60.24
48926;BME280;39838;59.938;30.642;2023-03-01T12:29:59;100255.16;;;0.33;60.52
48926;BME280;39838;59.938;30.642;2023-03-01T12:32:40;100252.16;;;0.43;60.46
48926;BME280;39838;59.938;30.642;2023-03-01T12:35:31;100253.06;;;0.45;60.65
48926;BME280;39838;59.938;30.642;2023-03-01T12:38:15;100243.56;;;0.41;60.72
48926;BME280;39838;59.938;30.642;2023-03-01T12:41:05;100244.72;;;0.27;61.98
48926;BME280;39838;59.938;30.642;2023-03-01T12:43:48;100256.47;;;0.22;62.43
48926;BME280;39838;59.938;30.642;2023-03-01T12:46:33;100252.97;;;-0.03;62.72
48926;BME280;39838;59.938;30.642;2023-03-01T12:49:09;100243.16;;;-0.14;64.24
48926;BME280;39838;59.938;30.642;2023-03-01T12:51:38;100236.94;;;-0.21;64.49
48926;BME280;39838;59.938;30.642;2023-03-01T12:54:14;100240.16;;;-0.26;65.40
48926;BME280;39838;59.938;30.642;2023-03-01T12:56:42;100239.38;;;-0.24;65.66
48926;BME280;39838;59.938;30.642;2023-03-01T12:59:23;100242.63;;;-0.28;65.78
48926;BME280;39838;59.938;30.642;2023-03-01T13:01:59;100242.16;;;-0.40;66.50